Time;durP1;ratioP1;P1;durP2;ratioP2;P2;SDS_P1;SDS_P2;PMS_P1;PMS_P2;Temp;Humidity;BMP_temperature;BMP_pressure;BME280_temperature;BME280_humidity;BME280_pressure;Samples;Min_cycle;Max_cycle;Signal;HPM_P1;HPM_P2
2022/10/19 00:01:35;;;;;;;2.38;2.17;;;;;;;12.97;84.69;100284.84;4842767;29;20087;-69
2022/10/19 00:04:05;;;;;;;1.25;1.13;;;;;;;12.97;84.69;100271.19;4842675;29;20072;-69
2022/10/19 00:06:37;;;;;;;4.32;2.08;;;;;;;12.96;84.88;100280.56;4842351;29;20074;-69
2022/10/19 00:09:07;;;;;;;;;;;;;;;13.00;84.84;100277.19;4843047;29;20042;-69
2022/10/19 00:11:40;;;;;;;1.75;1.60;;;;;;;13.00;84.92;100274.63;4842351;29;20004;-69
2022/10/19 00:14:12;;;;;;;5.47;3.25;;;;;;;13.00;85.44;100266.94;4842941;29;20509;-69
2022/10/19 00:16:42;;;;;;;2.45;2.17;;;;;;;13.02;84.87;100274.59;4845694;29;20110;-69
2022/10/19 00:19:14;;;;;;;2.20;1.55;;;;;;;13.04;84.93;100268.63;4845955;29;20136;-69
2022/10/19 00:21:43;;;;;;;2.58;2.08;;;;;;;13.05;85.26;100270.31;4845664;29;20080;-69
2022/10/19 00:24:12;;;;;;;4.00;1.57;;;;;;;13.04;85.40;100258.38;4845891;29;20102;-69
2022/10/19 00:26:43;;;;;;;1.43;1.00;;;;;;;12.97;86.04;100256.66;4845436;29;20046;-69
2022/10/19 00:29:12;;;;;;;1.00;1.00;;;;;;;12.98;85.53;100267.78;4844453;29;20281;-69
2022/10/19 00:31:42;;;;;;;1.40;1.30;;;;;;;13.00;85.90;100263.50;4845787;29;20077;-69
2022/10/19 00:34:10;;;;;;;1.83;1.63;;;;;;;12.96;86.28;100259.22;4845437;29;20057;-69
2022/10/19 00:36:41;;;;;;;1.85;1.67;;;;;;;12.95;86.12;100266.06;4845613;29;20145;-69
2022/10/19 00:39:14;;;;;;;0.98;0.90;;;;;;;13.05;86.49;100264.34;4845355;29;20073;-69
2022/10/19 00:41:46;;;;;;;1.90;1.70;;;;;;;12.93;86.19;100254.97;4845310;29;20054;-69
2022/10/19 00:44:35;;;;;;;1.63;1.52;;;;;;;13.03;86.06;100260.94;4845265;29;20053;-69
2022/10/19 00:47:06;;;;;;;;;;;;;;;13.01;86.44;100268.63;4845819;29;20038;-69
2022/10/19 00:49:38;;;;;;;1.77;1.67;;;;;;;13.00;86.44;100266.94;4845199;29;19924;-69
2022/10/19 00:52:09;;;;;;;1.50;1.40;;;;;;;12.99;86.38;100265.22;4845559;29;20081;-69
2022/10/19 00:54:41;;;;;;;3.13;1.85;;;;;;;12.98;86.34;100260.91;4845087;29;20053;-69
2022/10/19 00:57:11;;;;;;;1.42;1.17;;;;;;;12.98;86.32;100268.59;4843643;29;20178;-69
2022/10/19 00:59:43;;;;;;;1.08;0.98;;;;;;;12.96;86.22;100262.63;4844987;29;20053;-69
2022/10/19 01:02:12;;;;;;;2.50;2.17;;;;;;;12.92;86.44;100267.78;4845267;29;20050;-69
2022/10/19 01:04:48;;;;;;;0.88;0.85;;;;;;;12.94;86.08;100272.03;4845140;29;20050;-69
2022/10/19 01:07:16;;;;;;;2.53;1.00;;;;;;;12.82;86.16;100249.00;4844697;29;20054;-69
2022/10/19 01:09:45;;;;;;;2.55;2.03;;;;;;;12.90;86.19;100260.09;4844784;29;20049;-69
2022/10/19 01:12:40;;;;;;;3.33;1.75;;;;;;;12.89;85.95;100263.50;4845028;29;20408;-69
2022/10/19 01:15:21;;;;;;;3.47;1.92;;;;;;;12.84;85.76;100254.97;4844752;29;20050;-69
2022/10/19 01:17:58;;;;;;;1.88;1.05;;;;;;;12.77;85.83;100258.38;4844743;29;20057;-68
2022/10/19 01:20:42;;;;;;;3.20;2.35;;;;;;;12.74;86.09;100253.28;4844928;29;20057;-69
2022/10/19 01:23:34;;;;;;;1.77;1.67;;;;;;;12.73;85.82;100256.69;4844575;29;20106;-68
2022/10/19 01:26:15;;;;;;;1.75;1.60;;;;;;;12.69;85.68;100249.88;4843592;29;20102;-69
2022/10/19 01:28:59;;;;;;;1.67;0.98;;;;;;;12.64;85.91;100246.44;4844703;29;20046;-68
2022/10/19 01:31:37;;;;;;;1.65;1.55;;;;;;;12.61;85.79;100246.44;4843588;29;20054;-69
2022/10/19 01:34:13;;;;;;;0.85;0.82;;;;;;;12.59;85.81;100259.25;4844465;29;20092;-68
2022/10/19 01:36:48;;;;;;;3.63;2.42;;;;;;;12.52;85.69;100251.56;4844354;29;20062;-68
2022/10/19 01:39:25;;;;;;;1.50;1.02;;;;;;;12.43;85.76;100256.69;4844551;29;20054;-68
2022/10/19 01:42:01;;;;;;;1.85;1.75;;;;;;;12.35;85.70;100254.13;4844567;29;20054;-69
2022/10/19 01:44:40;;;;;;;1.67;1.58;;;;;;;12.24;85.88;100254.94;4844498;29;20106;-68
2022/10/19 01:47:17;;;;;;;1.10;1.00;;;;;;;12.24;85.81;100254.94;4844143;29;20054;-69
2022/10/19 01:49:50;;;;;;;1.40;1.30;;;;;;;12.22;85.89;100246.38;4844064;29;20049;-68
2022/10/19 01:52:22;;;;;;;2.22;1.77;;;;;;;12.21;86.15;100243.00;4844061;29;20061;-68
2022/10/19 01:54:59;;;;;;;2.28;1.95;;;;;;;12.23;86.13;100235.31;4844075;29;20057;-69
2022/10/19 01:57:32;;;;;;;1.67;1.58;;;;;;;12.27;86.33;100247.25;4844500;29;20393;-68
2022/10/19 02:00:06;;;;;;;4.00;2.35;;;;;;;12.33;86.78;100244.72;4842932;29;20519;-69
2022/10/19 02:02:47;;;;;;;2.53;2.33;;;;;;;12.37;87.06;100242.16;4843842;29;20054;-68
2022/10/19 02:05:20;;;;;;;1.73;1.20;;;;;;;12.36;87.29;100235.31;4843830;29;20054;-69
2022/10/19 02:07:54;;;;;;;2.25;1.30;;;;;;;12.34;87.46;100231.91;4843973;29;20053;-68
2022/10/19 02:10:25;;;;;;;2.05;1.58;;;;;;;12.43;87.41;100236.22;4843708;29;20056;-69
2022/10/19 02:12:55;;;;;;;1.27;1.17;;;;;;;12.45;87.21;100237.88;4844016;29;20069;-69
2022/10/19 02:15:27;;;;;;;2.30;1.55;;;;;;;12.39;87.08;100234.47;4843767;29;20052;-69
2022/10/19 02:18:01;;;;;;;2.28;1.48;;;;;;;12.28;86.84;100243.84;4843653;29;20054;-69
2022/10/19 02:20:30;;;;;;;1.25;1.15;;;;;;;12.26;86.72;100253.25;4843821;29;20531;-69
2022/10/19 02:22:59;;;;;;;1.70;1.60;;;;;;;12.29;86.61;100258.34;4843539;29;20042;-69
2022/10/19 02:25:27;;;;;;;2.10;1.40;;;;;;;12.29;86.90;100258.34;4843357;29;20112;-69
2022/10/19 02:27:56;;;;;;;6.57;3.22;;;;;;;12.27;86.66;100254.94;4843367;29;20038;-69
2022/10/19 02:30:25;;;;;;;5.75;1.95;;;;;;;12.27;86.50;100265.19;4843623;29;20045;-69
2022/10/19 02:32:53;;;;;;;4.90;3.58;;;;;;;12.22;86.79;100261.75;4843400;29;20049;-69
2022/10/19 02:35:23;;;;;;;4.35;3.15;;;;;;;12.22;86.59;100264.31;4843332;29;20104;-69
2022/10/19 02:37:52;;;;;;;2.10;1.55;;;;;;;12.19;86.56;100261.78;4843369;29;20503;-69
2022/10/19 02:40:22;;;;;;;1.70;1.25;;;;;;;12.14;86.67;100264.28;4843225;29;20050;-69
2022/10/19 02:42:56;;;;;;;2.33;1.55;;;;;;;12.06;86.65;100259.19;4843449;29;20092;-69
2022/10/19 02:45:29;;;;;;;1.90;1.80;;;;;;;11.96;86.74;100264.25;4843257;29;20065;-69
2022/10/19 02:48:02;;;;;;;2.65;1.73;;;;;;;11.88;86.82;100251.44;4843363;29;20049;-69
2022/10/19 02:50:32;;;;;;;1.33;1.23;;;;;;;11.93;87.06;100254.00;4843137;29;20061;-69
2022/10/19 02:53:01;;;;;;;1.08;0.98;;;;;;;11.99;87.23;100251.47;4843062;29;20057;-69
2022/10/19 02:55:31;;;;;;;1.33;1.23;;;;;;;12.04;87.51;100253.19;4843619;29;20038;-69
2022/10/19 02:58:00;;;;;;;3.28;1.95;;;;;;;12.12;87.45;100260.03;4843346;29;20053;-69
2022/10/19 03:00:29;;;;;;;1.23;1.13;;;;;;;11.98;87.58;100212.25;4843168;29;20050;-69
2022/10/19 03:02:58;;;;;;;1.37;1.27;;;;;;;12.34;87.86;100256.66;4843276;29;20074;-69
2022/10/19 03:05:26;;;;;;;3.00;1.50;;;;;;;12.44;87.94;100255.81;4842234;29;20050;-69
2022/10/19 03:07:57;;;;;;;1.37;1.17;;;;;;;12.48;87.90;100249.84;4843414;29;20129;-68
2022/10/19 03:10:26;;;;;;;2.13;1.92;;;;;;;12.55;87.94;100254.09;4842945;29;20046;-69
2022/10/19 03:12:57;;;;;;;1.90;1.60;;;;;;;12.66;88.41;100240.47;4842787;29;20110;-70
2022/10/19 03:15:28;;;;;;;3.28;2.08;;;;;;;13.03;88.43;100253.25;4842993;29;20057;-69
2022/10/19 03:17:57;;;;;;;2.40;1.80;;;;;;;13.02;88.01;100262.66;4843369;29;20049;-69
2022/10/19 03:20:26;;;;;;;1.92;1.33;;;;;;;13.00;88.26;100261.81;4842798;29;20489;-69
2022/10/19 03:22:54;;;;;;;2.77;1.03;;;;;;;13.09;88.36;100261.81;4843001;29;20054;-69
2022/10/19 03:25:24;;;;;;;1.10;1.00;;;;;;;13.17;88.06;100254.94;4842716;29;20057;-68
2022/10/19 03:27:53;;;;;;;0.63;0.63;;;;;;;13.13;87.94;100243.00;4843200;29;20054;-69
2022/10/19 03:30:22;;;;;;;1.05;0.95;;;;;;;13.23;87.86;100265.19;4842723;29;20509;-69
2022/10/19 03:32:51;;;;;;;1.55;1.45;;;;;;;13.27;87.71;100255.78;4842571;29;20046;-69
2022/10/19 03:35:19;;;;;;;2.05;1.70;;;;;;;13.31;87.30;100267.75;4842937;29;20046;-69
2022/10/19 03:37:48;;;;;;;1.48;1.38;;;;;;;13.28;86.75;100250.66;4842882;29;20038;-69
2022/10/19 03:40:17;;;;;;;1.38;1.27;;;;;;;13.31;86.50;100263.47;4842634;29;20054;-69
2022/10/19 03:42:47;;;;;;;0.83;0.83;;;;;;;13.31;86.67;100258.34;4842585;29;20115;-69
2022/10/19 03:45:16;;;;;;;1.25;1.15;;;;;;;13.29;86.37;100254.91;4842525;29;20046;-69
2022/10/19 03:47:49;;;;;;;1.42;1.23;;;;;;;13.24;86.19;100256.66;4842565;29;20056;-69
2022/10/19 03:50:19;;;;;;;1.80;1.65;;;;;;;13.12;86.00;100258.41;4845103;29;20054;-69
2022/10/19 03:52:48;;;;;;;0.95;0.85;;;;;;;12.99;85.95;100257.53;4846184;29;20078;-69
2022/10/19 03:55:17;;;;;;;5.05;3.42;;;;;;;12.85;85.93;100259.25;4845205;29;20069;-69
2022/10/19 03:57:47;;;;;;;0.82;0.82;;;;;;;12.86;86.25;100266.06;4846037;29;20042;-69
2022/10/19 04:00:16;;;;;;;0.80;0.80;;;;;;;12.81;86.04;100265.22;4846314;29;20046;-68
2022/10/19 04:02:45;;;;;;;4.18;1.63;;;;;;;12.78;86.18;100260.09;4846315;29;20386;-69
2022/10/19 04:05:13;;;;;;;1.13;1.02;;;;;;;12.69;86.29;100260.09;4845911;29;20057;-68
2022/10/19 04:07:42;;;;;;;5.60;3.33;;;;;;;12.71;86.46;100263.53;4846152;29;20072;-69
2022/10/19 04:10:11;;;;;;;2.40;1.27;;;;;;;12.66;86.37;100267.78;4845790;29;20042;-69
2022/10/19 04:12:39;;;;;;;1.98;0.63;;;;;;;12.64;86.35;100269.50;4846145;29;20500;-69
2022/10/19 04:15:10;;;;;;;1.50;1.38;;;;;;;12.78;86.50;100275.47;4845509;29;20069;-69
2022/10/19 04:17:39;;;;;;;1.73;1.27;;;;;;;12.83;86.43;100266.09;4845743;29;20062;-68
2022/10/19 04:20:08;;;;;;;0.75;0.75;;;;;;;12.80;86.45;100268.63;4845930;29;20069;-69
2022/10/19 04:22:37;;;;;;;1.23;0.95;;;;;;;12.75;86.24;100278.03;4845678;29;20066;-69
2022/10/19 04:25:07;;;;;;;1.30;1.20;;;;;;;12.63;86.14;100289.13;4845852;29;20386;-68
2022/10/19 04:27:35;;;;;;;1.08;1.02;;;;;;;12.49;86.17;100289.97;4845579;29;20509;-68
2022/10/19 04:30:05;;;;;;;2.85;2.05;;;;;;;12.49;86.40;100287.41;4845872;29;20042;-68
2022/10/19 04:32:35;;;;;;;;;;;;;;;12.49;86.29;100292.53;4846169;29;20057;-68
2022/10/19 04:35:04;;;;;;;1.15;0.90;;;;;;;12.44;86.28;100283.97;4845354;29;19931;-68
2022/10/19 04:37:33;;;;;;;0.88;0.80;;;;;;;12.35;86.05;100282.28;4845696;29;20042;-68
2022/10/19 04:40:02;;;;;;;1.80;1.48;;;;;;;12.27;86.09;100277.97;4845640;29;20565;-69
2022/10/19 04:42:32;;;;;;;1.02;0.93;;;;;;;12.27;85.96;100275.41;4845593;29;20104;-69
2022/10/19 04:45:00;;;;;;;0.77;0.77;;;;;;;12.30;85.88;100280.53;4845453;29;20396;-69
2022/10/19 04:47:29;;;;;;;0.85;0.85;;;;;;;12.34;85.97;100277.13;4845457;29;20527;-68
2022/10/19 04:49:59;;;;;;;1.43;1.33;;;;;;;12.38;86.03;100281.44;4845557;29;20439;-69
2022/10/19 04:52:27;;;;;;;2.42;1.90;;;;;;;12.39;85.79;100283.97;4845393;29;20462;-69
2022/10/19 04:54:56;;;;;;;1.33;1.00;;;;;;;12.40;86.05;100278.03;4845049;29;20053;-69
2022/10/19 04:57:25;;;;;;;3.25;2.17;;;;;;;12.47;86.21;100278.88;4844020;29;20046;-69
2022/10/19 04:59:54;;;;;;;5.20;3.15;;;;;;;12.52;86.25;100277.16;4845213;29;20054;-68
2022/10/19 05:02:22;;;;;;;3.27;2.80;;;;;;;12.53;86.22;100282.28;4845231;29;20052;-69
2022/10/19 05:04:51;;;;;;;3.40;2.72;;;;;;;12.51;86.18;100283.13;4843714;29;20042;-69
2022/10/19 05:07:21;;;;;;;2.15;1.58;;;;;;;12.51;86.25;100281.44;4845114;29;20177;-69
2022/10/19 05:09:49;;;;;;;2.92;1.92;;;;;;;12.44;86.14;100263.50;4845038;29;20049;-69
2022/10/19 05:12:18;;;;;;;2.17;1.93;;;;;;;12.49;86.45;100272.03;4845053;29;20042;-68
2022/10/19 05:14:47;;;;;;;1.35;1.20;;;;;;;12.55;86.28;100279.72;4844656;29;20061;-68
2022/10/19 05:17:16;;;;;;;3.38;1.75;;;;;;;12.54;86.24;100275.47;4843785;29;20041;-69
2022/10/19 05:19:44;;;;;;;1.50;1.40;;;;;;;12.56;86.35;100284.00;4844620;29;20042;-68
2022/10/19 05:22:13;;;;;;;1.45;1.00;;;;;;;12.57;86.23;100289.09;4844885;29;20042;-69
2022/10/19 05:24:43;;;;;;;0.90;0.90;;;;;;;12.58;86.24;100292.53;4844457;29;20057;-68
2022/10/19 05:27:12;;;;;;;0.60;0.60;;;;;;;12.50;86.08;100273.75;4844505;29;20113;-69
2022/10/19 05:29:40;;;;;;;0.60;0.60;;;;;;;12.60;86.15;100285.69;4843310;29;20130;-69
2022/10/19 05:32:09;;;;;;;2.05;1.25;;;;;;;12.56;86.03;100274.63;4843327;29;20113;-68
2022/10/19 05:34:37;;;;;;;1.27;1.17;;;;;;;12.60;86.16;100286.56;4844697;29;20053;-69
2022/10/19 05:37:06;;;;;;;0.65;0.50;;;;;;;12.54;85.97;100266.09;4844555;29;20445;-69
2022/10/19 05:39:35;;;;;;;2.60;0.63;;;;;;;12.62;85.97;100294.25;4844282;29;20053;-69
2022/10/19 05:42:05;;;;;;;0.55;0.55;;;;;;;12.60;85.91;100286.56;4844500;29;20042;-68
2022/10/19 05:44:34;;;;;;;1.50;1.40;;;;;;;12.63;85.85;100285.69;4844772;29;20490;-69
2022/10/19 05:47:03;;;;;;;1.13;1.02;;;;;;;12.66;85.78;100275.47;4844066;29;20038;-68
2022/10/19 05:49:31;;;;;;;1.95;0.88;;;;;;;12.68;85.87;100289.13;4844070;29;20404;-69
2022/10/19 05:52:00;;;;;;;0.95;0.85;;;;;;;12.67;85.96;100287.41;4844369;29;20044;-68
2022/10/19 05:54:29;;;;;;;1.80;1.10;;;;;;;12.67;85.53;100290.81;4843958;29;20042;-69
2022/10/19 05:56:58;;;;;;;1.08;0.93;;;;;;;12.67;85.70;100297.66;4843994;29;20054;-68
2022/10/19 05:59:28;;;;;;;1.48;1.38;;;;;;;12.70;85.65;100302.78;4843856;29;20050;-68
2022/10/19 06:01:57;;;;;;;1.33;1.23;;;;;;;12.78;85.52;100311.34;4843920;29;20057;-68
2022/10/19 06:04:26;;;;;;;1.48;1.15;;;;;;;12.85;85.26;100310.47;4842955;29;20073;-68
2022/10/19 06:06:54;;;;;;;4.35;2.10;;;;;;;12.84;85.29;100298.50;4844126;29;20046;-68
2022/10/19 06:09:23;;;;;;;1.75;1.45;;;;;;;13.01;85.06;100314.75;4843796;29;20064;-69
2022/10/19 06:11:52;;;;;;;3.00;1.85;;;;;;;13.07;85.48;100317.34;4843529;29;20134;-68
2022/10/19 06:14:20;;;;;;;1.23;1.13;;;;;;;13.12;85.04;100323.31;4843303;29;20136;-68
2022/10/19 06:16:50;;;;;;;0.77;0.73;;;;;;;13.25;85.38;100325.00;4843496;29;20050;-68
2022/10/19 06:19:19;;;;;;;2.83;1.40;;;;;;;13.40;84.91;100325.00;4844156;29;20054;-68
2022/10/19 06:21:48;;;;;;;4.88;1.88;;;;;;;13.55;84.99;100328.38;4843820;29;20120;-68
2022/10/19 06:24:16;;;;;;;1.88;1.73;;;;;;;13.62;84.59;100327.50;4843545;29;20050;-68
2022/10/19 06:26:45;;;;;;;1.00;0.90;;;;;;;13.73;84.12;100328.31;4843826;29;20045;-68
2022/10/19 06:29:14;;;;;;;0.52;0.50;;;;;;;13.77;83.68;100320.59;4843409;29;20041;-68
2022/10/19 06:31:44;;;;;;;0.80;0.73;;;;;;;13.73;83.31;100321.47;4843315;29;20576;-68
2022/10/19 06:34:14;;;;;;;1.52;1.40;;;;;;;13.90;83.02;100316.28;4843619;29;20156;-68
2022/10/19 06:36:43;;;;;;;1.58;1.05;;;;;;;13.95;82.97;100322.25;4843220;29;20110;-68
2022/10/19 06:39:12;;;;;;;0.70;0.70;;;;;;;14.02;82.94;100326.50;4843590;29;20046;-68
2022/10/19 06:41:40;;;;;;;0.88;0.88;;;;;;;14.18;82.90;100333.25;4842066;29;20046;-68
2022/10/19 06:44:21;;;;;;;2.60;1.30;;;;;;;14.40;83.06;100329.75;4843519;29;20057;-68
2022/10/19 06:46:50;;;;;;;21.70;4.60;;;;;;;14.55;83.00;100333.94;4843087;29;20106;-68
2022/10/19 06:49:20;;;;;;;2.92;2.50;;;;;;;14.65;82.47;100331.31;4843143;29;20056;-68
2022/10/19 06:51:48;;;;;;;1.25;1.15;;;;;;;14.49;82.58;100290.34;4843399;29;20096;-68
2022/10/19 06:54:17;;;;;;;0.88;0.88;;;;;;;14.76;82.09;100344.94;4843097;29;20514;-68
2022/10/19 06:56:46;;;;;;;0.80;0.80;;;;;;;14.83;82.26;100342.34;4843480;29;20114;-68
2022/10/19 06:59:16;;;;;;;2.45;1.33;;;;;;;14.80;81.54;100344.94;4842979;29;20512;-68
2022/10/19 07:01:45;;;;;;;1.80;1.70;;;;;;;14.93;81.29;100336.25;4841926;29;20050;-70
2022/10/19 07:04:13;;;;;;;1.85;1.60;;;;;;;15.07;80.58;100347.28;4843091;29;20585;-68
2022/10/19 07:06:43;;;;;;;1.05;0.85;;;;;;;15.13;80.75;100344.66;4842865;29;20081;-68
2022/10/19 07:09:12;;;;;;;2.40;1.48;;;;;;;15.23;80.34;100351.44;4843329;29;20041;-68
2022/10/19 07:11:41;;;;;;;1.83;1.23;;;;;;;15.31;79.91;100359.91;4843138;29;20404;-68
2022/10/19 07:14:13;;;;;;;1.13;1.02;;;;;;;15.37;79.42;100357.31;4842743;29;20507;-68
2022/10/19 07:16:42;;;;;;;2.90;1.87;;;;;;;15.45;79.19;100358.13;4842991;29;20449;-67
2022/10/19 07:19:12;;;;;;;0.40;0.40;;;;;;;15.57;78.21;100363.16;4842765;29;20046;-68
2022/10/19 07:21:42;;;;;;;1.55;1.38;;;;;;;15.74;77.46;100361.22;4842968;29;20061;-68
2022/10/19 07:24:12;;;;;;;1.15;0.90;;;;;;;15.87;76.94;100357.66;4842889;29;20050;-68
2022/10/19 07:26:41;;;;;;;1.67;0.65;;;;;;;15.97;75.72;100348.97;4847026;29;20046;-68
2022/10/19 07:29:10;;;;;;;0.80;0.80;;;;;;;16.08;75.13;100352.25;4846550;29;20050;-67
2022/10/19 07:31:39;;;;;;;0.33;0.33;;;;;;;16.17;74.69;100360.75;4846327;29;20088;-67
2022/10/19 07:34:11;;;;;;;0.40;0.40;;;;;;;16.26;73.96;100365.78;4846748;29;20409;-67
2022/10/19 07:36:43;;;;;;;0.85;0.80;;;;;;;16.27;73.28;100352.03;4846746;29;20073;-67
2022/10/19 07:39:17;;;;;;;0.50;0.50;;;;;;;16.32;72.44;100350.22;4846658;29;20092;-69
2022/10/19 07:41:46;;;;;;;0.45;0.45;;;;;;;16.46;71.99;100359.47;4846332;29;20057;-67
2022/10/19 07:44:15;;;;;;;1.08;0.82;;;;;;;16.55;71.63;100362.00;4846261;29;20077;-67
2022/10/19 07:46:43;;;;;;;0.50;0.50;;;;;;;16.61;71.04;100363.59;4845496;29;20049;-66
2022/10/19 07:49:15;;;;;;;0.50;0.50;;;;;;;16.69;70.74;100361.78;4846259;29;20057;-67
2022/10/19 07:51:43;;;;;;;0.52;0.52;;;;;;;16.80;71.16;100362.47;4846165;29;20137;-67
2022/10/19 07:54:13;;;;;;;1.13;1.02;;;;;;;16.89;70.65;100359.78;4839789;29;20056;-69
2022/10/19 07:56:42;;;;;;;0.40;0.40;;;;;;;16.94;70.25;100373.41;4833946;29;20038;-67
2022/10/19 07:59:13;;;;;;;0.30;0.30;;;;;;;16.99;69.94;100365.63;4838037;29;20130;-69
2022/10/19 08:01:42;;;;;;;0.50;0.50;;;;;;;16.99;69.60;100371.63;4846296;29;20053;-67
2022/10/19 08:04:11;;;;;;;0.70;0.70;;;;;;;17.05;69.30;100368.97;4845960;29;20050;-68
2022/10/19 08:07:00;;;;;;;0.75;0.63;;;;;;;17.06;68.54;100362.91;4846011;29;20106;-67
2022/10/19 08:09:30;;;;;;;0.40;0.40;;;;;;;17.12;67.84;100362.81;4845778;29;20054;-68
2022/10/19 08:12:19;;;;;;;0.43;0.43;;;;;;;17.09;67.24;100373.19;4846158;29;20048;-68
2022/10/19 08:14:47;;;;;;;1.10;0.93;;;;;;;17.17;67.37;100373.91;4843883;29;20057;-69
2022/10/19 08:17:16;;;;;;;0.63;0.63;;;;;;;17.26;67.05;100366.03;4829960;29;20046;-67
2022/10/19 08:19:45;;;;;;;0.50;0.50;;;;;;;17.33;66.78;100367.63;4827460;29;20149;-67
2022/10/19 08:22:14;;;;;;;1.10;0.68;;;;;;;17.40;67.02;100364.06;4827565;29;20080;-67
2022/10/19 08:24:44;;;;;;;0.63;0.60;;;;;;;17.46;66.69;100362.25;4827484;29;20145;-68
2022/10/19 08:27:13;;;;;;;1.65;1.20;;;;;;;17.38;65.83;100360.66;4827148;29;20141;-69
2022/10/19 08:29:42;;;;;;;1.48;0.68;;;;;;;17.32;65.60;100359.91;4827094;29;20046;-69
2022/10/19 08:32:11;;;;;;;0.50;0.50;;;;;;;17.35;65.61;100358.13;4840742;29;20540;-69
2022/10/19 08:34:40;;;;;;;1.33;0.85;;;;;;;17.43;65.80;100358.84;4843822;29;20046;-68
2022/10/19 08:37:09;;;;;;;0.60;0.60;;;;;;;17.50;65.77;100353.56;4842099;29;20039;-68
2022/10/19 08:39:59;;;;;;;0.80;0.80;;;;;;;17.53;65.55;100353.53;4826922;29;20494;-68
2022/10/19 08:42:39;;;;;;;0.57;0.57;;;;;;;17.57;65.14;100355.19;4827248;29;20047;-66
2022/10/19 08:45:30;;;;;;;1.30;1.20;;;;;;;17.53;63.97;100363.88;4829943;29;20084;-68
2022/10/19 08:48:11;;;;;;;0.60;0.60;;;;;;;17.53;63.98;100358.69;4829410;29;20058;-68
2022/10/19 08:50:44;;;;;;;1.20;0.77;;;;;;;17.65;64.11;100343.00;4826750;29;20524;-68
2022/10/19 08:53:16;;;;;;;7.90;1.05;;;;;;;17.63;63.89;100345.63;4826801;29;20507;-68
2022/10/19 08:55:59;;;;;;;0.85;0.85;;;;;;;17.63;63.37;100352.50;4836921;29;20050;-68
2022/10/19 08:58:51;;;;;;;0.50;0.50;;;;;;;17.74;63.05;100348.84;4835010;29;20046;-68
2022/10/19 09:01:33;;;;;;;0.52;0.52;;;;;;;17.73;62.21;100352.28;4844116;29;20061;-68
2022/10/19 09:04:10;;;;;;;1.23;0.95;;;;;;;17.82;61.54;100351.28;4843920;29;20042;-70
2022/10/19 09:06:50;;;;;;;0.70;0.70;;;;;;;17.84;61.02;100352.09;4835428;29;20053;-69
2022/10/19 09:09:20;;;;;;;0.50;0.50;;;;;;;17.82;60.86;100346.09;4842802;29;20054;-68
2022/10/19 09:11:56;;;;;;;0.88;0.88;;;;;;;17.75;60.85;100352.28;4843739;29;20045;-68
2022/10/19 09:14:31;;;;;;;2.15;1.13;;;;;;;17.75;61.81;100352.28;4826479;29;20050;-69
2022/10/19 09:17:03;;;;;;;0.88;0.88;;;;;;;17.58;61.97;100351.72;4826675;29;20046;-69
2022/10/19 09:19:32;;;;;;;0.73;0.70;;;;;;;17.38;61.96;100354.63;4830421;29;20054;-69
2022/10/19 09:22:06;;;;;;;1.38;0.80;;;;;;;17.46;61.43;100351.91;4843269;29;20057;-68
2022/10/19 09:24:43;;;;;;;0.60;0.60;;;;;;;17.67;61.64;100356.72;4844636;29;20058;-67
2022/10/19 09:27:20;;;;;;;0.82;0.77;;;;;;;17.85;61.17;100356.38;4844546;29;20046;-68
2022/10/19 09:29:55;;;;;;;0.88;0.85;;;;;;;18.00;59.98;100343.13;4844511;29;20477;-67
2022/10/19 09:32:30;;;;;;;0.80;0.80;;;;;;;18.03;59.46;100345.69;4844699;29;20046;-69
2022/10/19 09:35:03;;;;;;;0.77;0.77;;;;;;;18.08;58.82;100344.72;4844800;29;20528;-68
2022/10/19 09:37:37;;;;;;;0.95;0.70;;;;;;;18.18;58.43;100345.38;4845134;29;20049;-68
2022/10/19 09:40:10;;;;;;;0.40;0.40;;;;;;;18.17;57.18;100338.47;4843226;29;20517;-69
2022/10/19 09:42:40;;;;;;;0.95;0.93;;;;;;;18.16;56.87;100334.22;4844460;29;20050;-67
2022/10/19 09:45:16;;;;;;;0.60;0.52;;;;;;;18.20;56.54;100341.00;4844499;29;20057;-67
2022/10/19 09:47:48;;;;;;;0.50;0.50;;;;;;;18.23;56.36;100343.53;4841784;29;20050;-68
2022/10/19 09:50:20;;;;;;;1.30;0.65;;;;;;;18.34;56.55;100340.72;4852754;29;20038;-68
2022/10/19 09:52:51;;;;;;;1.05;0.50;;;;;;;18.49;56.53;100346.44;4833783;29;20054;-68
2022/10/19 09:55:28;;;;;;;0.60;0.60;;;;;;;18.44;55.54;100343.06;4843950;29;20132;-68
2022/10/19 09:58:05;;;;;;;0.82;0.80;;;;;;;18.39;54.89;100344.91;4843134;29;20145;-69
2022/10/19 10:00:38;;;;;;;1.60;0.82;;;;;;;18.45;55.18;100339.59;4844448;29;20058;-67
2022/10/19 10:03:07;;;;;;;0.60;0.60;;;;;;;18.54;55.16;100342.03;4843174;29;20046;-68
2022/10/19 10:05:38;;;;;;;0.85;0.80;;;;;;;18.53;54.68;100337.72;4833614;29;20129;-68
2022/10/19 10:08:14;;;;;;;0.75;0.65;;;;;;;18.71;54.82;100346.81;4844301;29;20054;-67
2022/10/19 10:10:45;;;;;;;1.30;1.20;;;;;;;18.78;54.62;100344.91;4843850;29;20063;-68
2022/10/19 10:13:21;;;;;;;0.50;0.50;;;;;;;18.80;54.34;100350.91;4841104;29;20121;-69
2022/10/19 10:15:55;;;;;;;0.60;0.60;;;;;;;18.67;54.06;100343.44;4843892;29;20042;-69
2022/10/19 10:18:26;;;;;;;0.75;0.75;;;;;;;18.67;53.06;100329.63;4843797;29;20407;-67
2022/10/19 10:21:04;;;;;;;0.50;0.50;;;;;;;18.64;52.25;100345.25;4843621;29;20077;-68
2022/10/19 10:23:35;;;;;;;2.10;1.35;;;;;;;18.65;51.97;100337.44;4843916;29;20046;-69
2022/10/19 10:26:06;;;;;;;0.77;0.77;;;;;;;18.72;51.57;100331.25;4837327;29;20129;-69
2022/10/19 10:28:47;;;;;;;1.38;0.95;;;;;;;18.85;51.47;100328.38;4842209;29;20050;-69
2022/10/19 10:31:20;;;;;;;0.70;0.70;;;;;;;18.93;50.65;100326.47;4843283;29;20046;-70
2022/10/19 10:33:56;;;;;;;0.50;0.50;;;;;;;18.97;50.29;100322.91;4840964;29;20046;-67
2022/10/19 10:36:48;;;;;;;0.75;0.75;;;;;;;19.07;49.99;100320.06;4842034;29;20501;-67
2022/10/19 10:39:19;;;;;;;0.55;0.55;;;;;;;19.20;50.15;100317.97;4843570;29;20054;-67
2022/10/19 10:41:49;;;;;;;0.45;0.45;;;;;;;19.25;49.64;100323.88;4843588;29;20549;-68
2022/10/19 10:44:22;;;;;;;0.70;0.70;;;;;;;19.33;48.87;100322.81;4843167;29;20060;-67
2022/10/19 10:46:54;;;;;;;1.75;1.30;;;;;;;19.45;48.31;100316.50;4843522;29;20080;-70
2022/10/19 10:49:26;;;;;;;0.80;0.80;;;;;;;19.47;48.11;100319.91;4842658;29;20054;-68
2022/10/19 10:51:58;;;;;;;0.68;0.68;;;;;;;19.49;48.26;100318.09;4843121;29;20137;-68
2022/10/19 10:54:30;;;;;;;0.50;0.50;;;;;;;19.62;48.23;100319.50;4843251;29;20049;-68
2022/10/19 10:57:12;;;;;;;1.60;1.02;;;;;;;19.52;47.58;100302.50;4842609;29;20054;-70
2022/10/19 10:59:53;;;;;;;0.68;0.65;;;;;;;19.52;47.69;100302.50;4842911;29;20046;-68
2022/10/19 11:02:32;;;;;;;0.75;0.75;;;;;;;19.33;48.06;100298.66;4843216;29;20450;-69
2022/10/19 11:05:06;;;;;;;0.47;0.47;;;;;;;19.49;48.69;100297.41;4843282;29;20050;-68
2022/10/19 11:07:36;;;;;;;0.65;0.65;;;;;;;19.55;48.23;100286.88;4842823;29;20046;-69
2022/10/19 11:10:14;;;;;;;1.70;0.93;;;;;;;19.58;48.08;100291.94;4841702;29;20073;-70
2022/10/19 11:12:49;;;;;;;0.50;0.50;;;;;;;19.72;47.99;100300.22;4842774;29;20050;-68
2022/10/19 11:15:24;;;;;;;0.60;0.60;;;;;;;19.75;47.72;100289.75;4842509;29;20505;-68
2022/10/19 11:18:02;;;;;;;0.73;0.60;;;;;;;19.81;47.59;100281.81;4843027;29;20061;-69
2022/10/19 11:20:32;;;;;;;0.75;0.68;;;;;;;19.72;47.56;100276.91;4842729;29;20065;-66
2022/10/19 11:23:12;;;;;;;2.20;1.25;;;;;;;19.84;47.97;100273.94;4841899;29;20411;-68
2022/10/19 11:25:48;;;;;;;;;;;;;;;20.05;48.09;100277.66;4843113;29;20062;-69
2022/10/19 11:28:33;;;;;;;0.70;0.70;;;;;;;20.16;47.87;100269.53;4842693;29;19931;-70
2022/10/19 11:31:15;;;;;;;0.82;0.82;;;;;;;20.23;47.19;100265.94;4842960;29;20053;-69
2022/10/19 11:33:55;;;;;;;0.50;0.50;;;;;;;20.09;46.73;100266.28;4842785;29;20057;-69
2022/10/19 11:36:38;;;;;;;0.95;0.82;;;;;;;20.04;45.98;100269.03;4842174;29;20125;-69
2022/10/19 11:39:24;;;;;;;0.50;0.50;;;;;;;19.81;45.33;100268.88;4856909;29;20054;-68
2022/10/19 11:42:02;;;;;;;0.65;0.63;;;;;;;19.75;45.76;100269.03;4827900;29;20634;-68
2022/10/19 11:44:41;;;;;;;0.50;0.50;;;;;;;19.71;45.28;100262.25;4824389;29;20565;-69
2022/10/19 11:47:30;;;;;;;0.70;0.70;;;;;;;19.38;45.54;100263.19;4833606;29;20050;-68
2022/10/19 11:50:10;;;;;;;0.50;0.50;;;;;;;19.06;45.98;100265.72;4824329;29;20074;-69